Time;durP1;ratioP1;P1;durP2;ratioP2;P2;SDS_P1;SDS_P2;PMS_P1;PMS_P2;Temp;Humidity;BMP_temperature;BMP_pressure;BME280_temperature;BME280_humidity;BME280_pressure;Samples;Min_cycle;Max_cycle;Signal;HPM_P1;HPM_P2
2021/06/29 00:02:10;;;;;;;17.23;10.07;;;;;;;25.00;34.15;101759.66;5099088;28;20027;-84
2021/06/29 00:04:36;;;;;;;13.80;9.05;;;;;;;24.94;34.49;101766.00;5099010;28;20030;-87
2021/06/29 00:07:02;;;;;;;9.95;8.90;;;;;;;24.89;34.12;101761.59;5117112;28;20031;-86
2021/06/29 00:09:27;;;;;;;11.38;9.15;;;;;;;24.87;34.20;101753.59;5116953;28;20027;-83
2021/06/29 00:11:53;;;;;;;11.93;9.20;;;;;;;24.76;34.43;101755.47;5116845;28;20027;-83
2021/06/29 00:14:19;;;;;;;12.98;9.90;;;;;;;24.74;34.49;101755.06;5098796;28;20474;-83
2021/06/29 00:16:44;;;;;;;17.42;9.90;;;;;;;24.66;34.26;101752.59;5098778;28;20459;-84
2021/06/29 00:19:10;;;;;;;13.75;10.55;;;;;;;24.65;34.39;101751.00;5116853;28;20126;-85
2021/06/29 00:21:35;;;;;;;18.73;9.15;;;;;;;24.62;34.05;101758.94;5098705;28;20027;-81
2021/06/29 00:24:02;;;;;;;13.57;9.32;;;;;;;24.62;34.27;101760.94;5116978;28;20019;-86
2021/06/29 00:26:29;;;;;;;17.85;10.70;;;;;;;24.61;34.26;101764.91;5098652;28;20050;-82
2021/06/29 00:28:54;;;;;;;12.75;10.23;;;;;;;24.64;34.29;101766.97;5098712;28;20050;-84
2021/06/29 00:31:20;;;;;;;14.50;10.77;;;;;;;24.58;34.56;101757.31;5098418;28;20024;-84
2021/06/29 00:33:46;;;;;;;11.45;9.48;;;;;;;24.57;34.19;101755.72;5116631;28;20030;-83
2021/06/29 00:36:15;;;;;;;13.30;9.35;;;;;;;24.53;34.18;101752.06;5116857;28;20529;-83
2021/06/29 00:38:41;;;;;;;18.02;11.60;;;;;;;24.46;34.45;101754.78;5098536;28;20034;-82
2021/06/29 00:41:06;;;;;;;16.42;10.98;;;;;;;24.38;34.50;101753.13;5098269;28;20031;-84
2021/06/29 00:43:32;;;;;;;14.10;11.88;;;;;;;24.29;34.86;101754.19;5097925;28;20024;-83
2021/06/29 00:45:58;;;;;;;19.60;13.50;;;;;;;24.23;34.68;101754.91;5097987;28;20030;-87
2021/06/29 00:48:23;;;;;;;17.50;13.45;;;;;;;24.21;34.78;101754.50;5116489;28;20032;-82
2021/06/29 00:50:50;;;;;;;20.90;13.93;;;;;;;24.25;34.77;101753.34;5098152;28;20068;-82
2021/06/29 00:53:15;;;;;;;24.52;15.52;;;;;;;24.23;34.57;101752.13;5116187;28;20024;-85
2021/06/29 00:55:42;;;;;;;18.23;14.75;;;;;;;24.18;34.41;101753.28;5116136;28;20031;-85
2021/06/29 00:58:10;;;;;;;25.23;16.20;;;;;;;24.11;34.51;101744.81;5115184;28;20023;-82
2021/06/29 01:00:38;;;;;;;23.67;16.10;;;;;;;24.12;34.82;101751.22;5115939;28;20472;-83
2021/06/29 01:03:04;;;;;;;24.70;16.58;;;;;;;24.06;34.99;101754.34;5116367;28;20023;-85
2021/06/29 01:05:29;;;;;;;21.33;15.75;;;;;;;24.02;34.85;101745.09;5098033;28;20034;-82
2021/06/29 01:07:55;;;;;;;23.75;15.65;;;;;;;24.01;34.79;101745.50;5097528;28;20031;-84
2021/06/29 01:10:22;;;;;;;23.85;15.77;;;;;;;23.98;34.70;101740.69;5098135;28;20065;-87
2021/06/29 01:12:47;;;;;;;24.67;16.98;;;;;;;23.91;34.65;101743.38;5116009;28;20028;-83
2021/06/29 01:15:13;;;;;;;23.45;17.52;;;;;;;23.82;34.83;101745.66;5097826;28;20398;-86
2021/06/29 01:17:39;;;;;;;30.05;17.25;;;;;;;23.82;35.04;101743.69;5115981;28;20043;-83
2021/06/29 01:20:13;;;;;;;22.83;16.52;;;;;;;23.84;34.75;101748.88;5097646;28;20035;-82
2021/06/29 01:22:40;;;;;;;22.27;14.93;;;;;;;23.87;34.75;101742.53;5097697;28;20032;-84
2021/06/29 01:25:08;;;;;;;18.92;14.48;;;;;;;23.84;35.01;101744.09;5097495;28;20026;-81
2021/06/29 01:27:49;;;;;;;24.13;13.90;;;;;;;23.74;34.99;101736.41;5115771;28;20031;-84
2021/06/29 01:32:41;;;;;;;19.10;13.10;;;;;;;23.64;35.20;101749.00;5115865;28;20024;-83
2021/06/29 01:35:09;;;;;;;16.05;12.10;;;;;;;23.64;34.83;101735.06;5097459;28;20507;-83
2021/06/29 01:37:36;;;;;;;17.92;12.75;;;;;;;23.66;34.89;101745.84;5097277;28;20092;-83
2021/06/29 01:40:20;;;;;;;21.95;13.05;;;;;;;23.64;34.98;101740.63;5115559;28;20032;-85
2021/06/29 01:42:56;;;;;;;23.85;13.73;;;;;;;23.58;35.00;101738.53;5115648;28;20072;-84
2021/06/29 01:45:22;;;;;;;18.98;13.00;;;;;;;23.48;34.96;101738.00;5115359;28;20031;-83
2021/06/29 01:50:16;;;;;;;21.98;16.58;;;;;;;23.44;34.79;101733.56;5115687;28;20037;-83
2021/06/29 01:52:42;;;;;;;26.00;17.52;;;;;;;23.43;34.80;101731.97;5097189;28;20024;-82
2021/06/29 01:55:09;;;;;;;30.92;18.80;;;;;;;23.44;34.80;101733.56;5097129;28;20102;-85
2021/06/29 01:57:36;;;;;;;28.33;18.23;;;;;;;23.34;35.04;101731.41;5115474;28;20059;-84
2021/06/29 02:00:07;;;;;;;24.67;17.25;;;;;;;23.26;34.75;101728.53;5115118;28;20035;-83
2021/06/29 02:02:33;;;;;;;30.58;20.42;;;;;;;23.21;35.12;101728.06;5115281;28;20075;-84
2021/06/29 02:04:58;;;;;;;38.72;24.13;;;;;;;23.17;35.15;101725.22;5097041;28;20064;-83
2021/06/29 02:07:24;;;;;;;40.50;25.30;;;;;;;23.15;35.35;101719.22;5096922;28;20118;-82
2021/06/29 02:09:50;;;;;;;32.55;23.52;;;;;;;23.19;34.99;101728.41;5096733;28;20114;-82
2021/06/29 02:12:16;;;;;;;29.00;20.63;;;;;;;23.24;34.74;101730.88;5096859;28;20466;-86
2021/06/29 02:14:41;;;;;;;28.50;20.40;;;;;;;23.22;35.39;101730.47;5114900;28;20115;-82
2021/06/29 02:17:07;;;;;;;31.33;18.73;;;;;;;23.33;34.85;101733.41;5114580;28;20452;-86
2021/06/29 02:19:32;;;;;;;27.52;19.02;;;;;;;23.31;35.04;101741.34;5114564;28;20051;-83
2021/06/29 02:21:58;;;;;;;29.02;20.25;;;;;;;23.28;35.10;101741.31;5114715;28;20051;-85
2021/06/29 02:24:24;;;;;;;33.72;21.10;;;;;;;23.22;35.11;101738.84;5096653;28;20025;-82
2021/06/29 02:26:49;;;;;;;36.45;21.00;;;;;;;23.21;34.97;101734.44;5096505;28;20110;-82
2021/06/29 02:29:15;;;;;;;38.28;24.90;;;;;;;23.20;35.08;101737.56;5096460;28;20031;-82
2021/06/29 02:31:40;;;;;;;33.80;22.55;;;;;;;23.17;35.11;101741.94;5096136;28;20020;-84
2021/06/29 02:34:06;;;;;;;32.55;22.42;;;;;;;23.16;34.99;101745.09;5096097;28;20080;-84
2021/06/29 02:36:31;;;;;;;31.17;20.98;;;;;;;23.13;35.10;101743.88;5095621;28;20023;-84
2021/06/29 02:38:57;;;;;;;35.40;20.80;;;;;;;23.08;35.09;101729.44;5095862;28;20027;-82
2021/06/29 02:41:23;;;;;;;36.10;19.85;;;;;;;23.09;35.09;101737.44;5096204;28;20073;-86
2021/06/29 02:43:50;;;;;;;24.83;17.90;;;;;;;23.04;35.26;101736.94;5114362;28;20023;-83
2021/06/29 02:46:15;;;;;;;22.50;15.95;;;;;;;23.05;35.27;101731.00;5114110;28;20019;-83
2021/06/29 02:48:41;;;;;;;23.80;15.38;;;;;;;23.04;35.10;101729.38;5114344;28;20496;-82
2021/06/29 02:51:07;;;;;;;21.05;14.63;;;;;;;23.04;35.09;101732.16;5096130;28;20027;-85
2021/06/29 02:53:33;;;;;;;21.67;14.07;;;;;;;22.97;34.99;101734.84;5114229;28;20432;-84
2021/06/29 02:55:59;;;;;;;18.05;13.05;;;;;;;22.80;35.24;101735.31;5114387;28;20030;-83
2021/06/29 02:58:24;;;;;;;22.30;13.32;;;;;;;22.67;35.64;101741.09;5095982;28;20026;-82
2021/06/29 03:00:50;;;;;;;21.25;13.25;;;;;;;22.71;35.14;101741.94;5114301;28;20404;-87
2021/06/29 03:03:16;;;;;;;20.52;13.25;;;;;;;22.70;35.17;101745.91;5095978;28;20366;-86
2021/06/29 03:05:41;;;;;;;23.02;14.70;;;;;;;22.69;35.31;101749.88;5095932;28;20027;-84
2021/06/29 03:08:07;;;;;;;27.88;15.25;;;;;;;22.70;35.09;101751.50;5113848;28;20583;-84
2021/06/29 03:10:33;;;;;;;20.00;12.52;;;;;;;22.73;35.34;101743.56;5114205;28;20500;-83
2021/06/29 03:12:58;;;;;;;24.55;12.88;;;;;;;22.74;35.47;101753.53;5095744;28;20024;-82
2021/06/29 03:15:26;;;;;;;21.30;13.32;;;;;;;22.69;35.44;101747.09;5114018;28;20665;-85
2021/06/29 03:17:51;;;;;;;23.10;12.25;;;;;;;22.63;35.68;101740.22;5094119;28;20049;-85
2021/06/29 03:20:17;;;;;;;24.42;12.85;;;;;;;22.62;35.59;101735.03;5099215;28;20048;-83
2021/06/29 03:22:43;;;;;;;28.02;18.08;;;;;;;22.62;35.44;101733.03;5112877;28;20393;-86
2021/06/29 03:25:09;;;;;;;39.20;21.15;;;;;;;22.65;35.75;101728.72;5095517;28;20028;-85
2021/06/29 03:27:36;;;;;;;40.75;22.63;;;;;;;22.63;35.65;101728.28;5095445;28;20378;-85
2021/06/29 03:30:04;;;;;;;41.65;24.10;;;;;;;22.63;35.66;101726.28;5095325;28;20119;-84
2021/06/29 03:32:29;;;;;;;39.45;23.15;;;;;;;22.63;35.59;101728.28;5113558;28;20068;-85
2021/06/29 03:34:55;;;;;;;37.17;21.45;;;;;;;22.66;35.64;101733.09;5095402;28;20122;-83
2021/06/29 03:37:20;;;;;;;42.33;17.13;;;;;;;22.60;35.89;101732.63;5095141;28;20031;-84
2021/06/29 03:39:46;;;;;;;22.27;15.93;;;;;;;22.59;35.68;101733.78;5095019;28;20069;-83
2021/06/29 03:42:12;;;;;;;25.55;16.85;;;;;;;22.62;35.24;101729.47;5112934;28;20031;-87
2021/06/29 03:44:37;;;;;;;31.02;18.85;;;;;;;22.65;35.56;101725.91;5113461;28;20034;-84
2021/06/29 03:47:03;;;;;;;27.90;19.05;;;;;;;22.66;35.63;101725.53;5095235;28;20517;-84
2021/06/29 03:49:30;;;;;;;27.52;18.90;;;;;;;22.67;35.57;101731.91;5113595;28;20015;-85
2021/06/29 03:51:56;;;;;;;31.02;19.60;;;;;;;22.64;35.74;101730.69;5095218;28;20073;-85
2021/06/29 03:54:22;;;;;;;25.50;17.98;;;;;;;22.69;35.66;101721.22;5113540;28;20095;-84
2021/06/29 03:56:48;;;;;;;21.73;16.15;;;;;;;22.63;35.71;101726.28;5113509;28;20092;-83
2021/06/29 03:59:13;;;;;;;26.02;16.50;;;;;;;22.62;35.62;101733.03;5094771;28;20102;-83
2021/06/29 04:01:39;;;;;;;26.45;13.60;;;;;;;22.58;35.78;101726.59;5112917;28;20097;-83
2021/06/29 04:04:05;;;;;;;24.75;14.27;;;;;;;22.55;35.62;101724.56;5095037;28;20031;-84
2021/06/29 04:06:36;;;;;;;29.55;16.05;;;;;;;22.64;35.80;101730.69;5113234;28;20027;-82
2021/06/29 04:09:05;;;;;;;25.98;13.63;;;;;;;22.65;35.75;101731.50;5095155;28;20085;-83
2021/06/29 04:11:31;;;;;;;21.83;13.85;;;;;;;22.61;35.78;101725.06;5113381;28;20069;-87
2021/06/29 04:13:57;;;;;;;26.90;15.27;;;;;;;22.66;35.61;101717.19;5094888;28;20027;-83
2021/06/29 04:16:23;;;;;;;20.50;15.05;;;;;;;22.66;35.73;101728.31;5094960;28;20110;-86
2021/06/29 04:18:49;;;;;;;27.88;16.58;;;;;;;22.66;35.43;101717.19;5113002;28;20039;-85
2021/06/29 04:21:15;;;;;;;31.75;18.40;;;;;;;22.64;35.83;101725.13;5094658;28;20389;-83
2021/06/29 04:23:45;;;;;;;33.65;17.33;;;;;;;22.63;35.74;101728.28;5094728;28;20016;-85
2021/06/29 04:26:16;;;;;;;31.40;18.20;;;;;;;22.62;35.79;101733.03;5094779;28;20446;-83
2021/06/29 04:28:42;;;;;;;25.80;16.73;;;;;;;22.71;35.71;101721.66;5094981;28;20080;-82
2021/06/29 04:31:08;;;;;;;26.15;16.95;;;;;;;22.63;35.85;101723.50;5112965;28;20016;-86
2021/06/29 04:36:09;;;;;;;24.25;16.17;;;;;;;22.62;36.08;101723.88;5199827;22;20061;-83
2021/06/29 04:38:35;;;;;;;28.63;15.50;;;;;;;22.62;35.92;101726.66;4998319;28;20443;-83
2021/06/29 04:41:00;;;;;;;24.50;14.38;;;;;;;22.66;35.90;101717.19;4998500;28;20037;-83
2021/06/29 04:43:26;;;;;;;24.05;15.68;;;;;;;22.62;36.16;101713.56;4998155;28;20088;-83
2021/06/29 04:45:52;;;;;;;28.98;13.77;;;;;;;22.61;36.11;101722.28;5015695;28;20065;-83
2021/06/29 04:48:17;;;;;;;28.42;14.02;;;;;;;22.61;35.78;101728.66;4998345;28;20057;-82
2021/06/29 04:50:44;;;;;;;20.13;13.25;;;;;;;22.65;35.95;101723.13;4998242;28;20045;-83
2021/06/29 04:53:11;;;;;;;28.88;16.60;;;;;;;22.62;36.22;101724.69;4998162;28;20026;-80
2021/06/29 04:55:36;;;;;;;19.90;14.00;;;;;;;22.81;35.88;101718.22;4998161;28;20056;-82
2021/06/29 04:58:02;;;;;;;24.23;14.73;;;;;;;22.81;35.84;101715.44;5015684;28;20468;-82
2021/06/29 05:00:27;;;;;;;24.80;16.05;;;;;;;22.82;35.93;101708.72;4998066;28;20039;-82
2021/06/29 05:02:53;;;;;;;23.88;15.02;;;;;;;22.86;36.19;101712.38;4997714;28;20425;-82
2021/06/29 05:05:20;;;;;;;30.15;14.98;;;;;;;22.94;35.94;101710.50;4997695;28;20025;-84
2021/06/29 05:07:47;;;;;;;27.02;13.68;;;;;;;23.07;35.88;101711.13;5015695;28;20029;-82
2021/06/29 05:10:13;;;;;;;26.73;14.20;;;;;;;23.10;35.87;101713.94;4998084;28;20028;-82
2021/06/29 05:12:39;;;;;;;24.65;13.02;;;;;;;23.13;36.10;101710.44;5015599;28;20025;-84
2021/06/29 05:15:07;;;;;;;21.13;12.02;;;;;;;23.10;36.08;101711.16;4998226;28;20026;-84
2021/06/29 05:17:33;;;;;;;21.15;11.95;;;;;;;23.19;35.82;101706.09;4998070;28;20488;-84
2021/06/29 05:19:58;;;;;;;23.08;12.60;;;;;;;23.17;35.86;101711.25;4997345;28;20474;-81
2021/06/29 05:22:24;;;;;;;29.27;15.07;;;;;;;23.17;36.15;101718.81;4997650;28;20113;-81
2021/06/29 05:24:50;;;;;;;31.77;13.38;;;;;;;23.20;36.16;101720.84;4997540;28;20050;-81
2021/06/29 05:27:16;;;;;;;19.10;12.70;;;;;;;23.35;36.03;101711.53;4997470;28;20057;-80
2021/06/29 05:29:41;;;;;;;23.52;12.07;;;;;;;23.46;36.04;101720.84;4997508;28;20030;-82
2021/06/29 05:32:08;;;;;;;18.88;12.45;;;;;;;23.48;35.96;101720.47;5015082;28;20037;-82
2021/06/29 05:34:34;;;;;;;23.90;13.98;;;;;;;23.43;36.25;101724.41;4994268;28;20428;-83
2021/06/29 05:36:59;;;;;;;19.38;11.80;;;;;;;23.42;36.17;101727.53;4995446;28;20028;-83
2021/06/29 05:39:25;;;;;;;18.95;11.70;;;;;;;23.46;36.32;101725.63;4994270;28;20485;-83
2021/06/29 05:41:50;;;;;;;29.08;11.55;;;;;;;23.58;36.17;101719.81;4993950;28;20022;-82
2021/06/29 05:44:16;;;;;;;17.92;10.90;;;;;;;23.63;36.14;101713.91;4993676;28;20081;-82
2021/06/29 05:46:42;;;;;;;23.35;11.55;;;;;;;23.70;36.21;101718.78;4995662;28;20030;-84
2021/06/29 05:49:13;;;;;;;21.92;11.63;;;;;;;23.67;36.29;101723.16;4995217;28;20037;-82
2021/06/29 05:51:46;;;;;;;26.25;14.82;;;;;;;23.71;36.51;101721.19;4994060;28;20025;-84
2021/06/29 05:54:12;;;;;;;25.67;14.30;;;;;;;23.86;36.17;101719.38;4995192;28;20027;-81
2021/06/29 05:56:40;;;;;;;25.92;13.80;;;;;;;23.92;36.45;101737.41;4995135;28;20362;-82
2021/06/29 05:59:05;;;;;;;26.35;14.70;;;;;;;23.91;36.67;101729.44;4994951;28;20019;-83
2021/06/29 06:01:31;;;;;;;28.20;16.10;;;;;;;24.17;36.48;101737.69;4993367;28;20030;-82
2021/06/29 06:03:56;;;;;;;26.40;15.50;;;;;;;24.62;35.95;101736.59;4993475;28;20124;-82
2021/06/29 06:06:22;;;;;;;27.52;15.73;;;;;;;24.69;36.30;101738.66;4993591;28;20027;-83
2021/06/29 06:08:48;;;;;;;35.80;16.02;;;;;;;24.91;35.86;101731.25;4994840;28;20081;-81
2021/06/29 06:11:13;;;;;;;35.60;19.73;;;;;;;25.14;35.95;101731.03;4993557;28;20022;-82
2021/06/29 06:13:39;;;;;;;28.23;18.85;;;;;;;25.30;36.01;101734.34;4993423;28;20030;-83
2021/06/29 06:16:05;;;;;;;30.33;20.05;;;;;;;25.46;35.62;101740.44;4993447;28;20026;-81
2021/06/29 06:18:31;;;;;;;34.90;22.58;;;;;;;25.68;35.39;101730.16;4994487;28;20106;-81
2021/06/29 06:20:57;;;;;;;38.55;25.73;;;;;;;25.77;35.46;101732.66;4993343;28;20076;-81
2021/06/29 06:23:22;;;;;;;35.03;24.13;;;;;;;25.77;35.16;101731.81;4993273;28;20026;-83
2021/06/29 06:25:48;;;;;;;37.90;26.52;;;;;;;25.77;35.02;101732.66;4993418;28;20026;-80
2021/06/29 06:28:13;;;;;;;44.33;28.88;;;;;;;25.64;35.64;101734.94;4993156;28;20033;-82
2021/06/29 06:30:41;;;;;;;30.30;21.17;;;;;;;25.75;35.09;101740.63;4993391;28;20030;-82
2021/06/29 06:33:07;;;;;;;38.60;21.08;;;;;;;25.78;35.17;101750.25;4993359;28;20030;-81
2021/06/29 06:35:34;;;;;;;24.20;14.27;;;;;;;25.68;34.84;101744.16;5005586;28;20407;-82
2021/06/29 06:38:00;;;;;;;19.90;12.35;;;;;;;25.75;34.75;101749.00;4996384;28;20029;-83
2021/06/29 06:40:26;;;;;;;15.40;9.90;;;;;;;25.90;34.62;101747.06;5013867;28;20034;-81
2021/06/29 06:42:51;;;;;;;18.70;11.38;;;;;;;25.80;34.83;101745.03;5012421;28;20026;-70
2021/06/29 06:45:22;;;;;;;43.70;14.27;;;;;;;25.75;35.05;101757.41;5013587;28;20057;-69
2021/06/29 06:47:48;;;;;;;24.52;12.93;;;;;;;25.83;34.93;101749.84;5013560;28;20069;-68
2021/06/29 06:50:14;;;;;;;22.80;11.52;;;;;;;25.63;34.95;101749.34;5013452;28;20065;-68
2021/06/29 06:52:39;;;;;;;20.45;11.20;;;;;;;25.92;34.60;101756.72;5013437;28;20030;-68
2021/06/29 06:55:07;;;;;;;19.30;8.52;;;;;;;26.07;34.30;101756.72;5013709;28;20026;-67
2021/06/29 06:57:32;;;;;;;16.05;7.45;;;;;;;26.18;34.38;101763.19;5012530;28;20034;-67
2021/06/29 06:59:58;;;;;;;22.33;9.65;;;;;;;26.12;34.93;101756.34;5013163;28;20388;-68
2021/06/29 07:02:24;;;;;;;18.73;7.82;;;;;;;26.40;34.10;101756.47;5013261;28;20033;-68
2021/06/29 07:04:49;;;;;;;19.02;8.52;;;;;;;26.42;34.47;101759.66;5013173;28;20079;-68
2021/06/29 07:07:15;;;;;;;11.88;5.90;;;;;;;26.40;34.25;101753.66;5013255;28;20041;-76
2021/06/29 07:09:41;;;;;;;15.15;7.03;;;;;;;26.46;33.80;101752.09;5013187;28;20407;-68
2021/06/29 07:12:07;;;;;;;9.93;6.43;;;;;;;26.63;33.72;101758.91;5013146;28;20097;-68
2021/06/29 07:14:33;;;;;;;16.42;7.20;;;;;;;26.52;33.74;101760.88;5013077;28;20029;-68
2021/06/29 07:16:59;;;;;;;14.80;7.25;;;;;;;26.68;33.40;101752.13;5012821;28;20099;-78
2021/06/29 07:19:24;;;;;;;11.93;6.05;;;;;;;26.85;33.03;101761.72;5013240;28;20034;-68
2021/06/29 07:21:50;;;;;;;8.77;6.07;;;;;;;26.81;33.20;101765.31;5013222;28;20538;-68
2021/06/29 07:24:15;;;;;;;11.52;6.50;;;;;;;26.78;33.02;101762.53;5010232;28;20087;-67
2021/06/29 07:26:41;;;;;;;12.27;7.22;;;;;;;26.95;32.91;101761.72;4994013;28;20030;-67
2021/06/29 07:29:06;;;;;;;14.88;6.82;;;;;;;27.04;32.58;101770.56;5012805;28;20062;-67
2021/06/29 07:31:34;;;;;;;16.27;7.13;;;;;;;26.88;32.98;101770.13;5012881;28;20416;-68
2021/06/29 07:34:00;;;;;;;9.95;6.43;;;;;;;27.00;32.60;101774.53;5012865;28;20101;-68
2021/06/29 07:36:25;;;;;;;15.68;7.28;;;;;;;27.05;32.73;101768.53;5012788;28;20573;-67
2021/06/29 07:38:54;;;;;;;12.82;6.00;;;;;;;27.06;32.58;101773.78;4997341;28;20036;-68
2021/06/29 07:41:19;;;;;;;15.10;5.78;;;;;;;27.00;32.84;101775.34;4996740;28;20448;-68
2021/06/29 07:43:45;;;;;;;12.40;6.30;;;;;;;27.03;32.66;101771.72;4996437;28;20101;-68
2021/06/29 07:46:10;;;;;;;16.67;7.30;;;;;;;27.17;32.67;101772.97;4995980;28;20038;-68
2021/06/29 07:48:36;;;;;;;26.73;8.55;;;;;;;27.00;32.89;101775.34;4996054;28;20026;-68
2021/06/29 07:51:05;;;;;;;14.75;6.65;;;;;;;27.15;32.72;101780.97;4995809;28;20022;-68
2021/06/29 07:53:31;;;;;;;13.13;6.03;;;;;;;27.25;32.30;101774.53;4995485;28;20034;-68
2021/06/29 07:55:56;;;;;;;10.38;6.25;;;;;;;27.36;32.24;101778.94;5010898;28;20034;-69
2021/06/29 07:58:22;;;;;;;15.73;6.18;;;;;;;27.49;32.30;101784.91;5009337;28;20491;-77
2021/06/29 08:00:47;;;;;;;16.70;10.05;;;;;;;27.53;32.07;101782.91;4996442;28;20577;-70
2021/06/29 08:03:13;;;;;;;17.70;11.48;;;;;;;27.73;31.91;101774.06;5007315;28;20030;-73
2021/06/29 08:05:39;;;;;;;22.95;10.30;;;;;;;27.78;31.88;101779.25;4998152;28;20419;-80
2021/06/29 08:08:07;;;;;;;37.80;20.08;;;;;;;27.72;31.98;101786.50;4997719;28;20037;-72
2021/06/29 08:10:34;;;;;;;30.13;18.88;;;;;;;27.72;31.99;101789.31;5000903;28;20038;-79
2021/06/29 08:12:59;;;;;;;35.88;16.38;;;;;;;27.94;31.81;101793.66;4998780;28;20026;-70
2021/06/29 08:15:27;;;;;;;36.50;22.13;;;;;;;27.96;31.72;101790.41;5004110;28;20117;-69
2021/06/29 08:17:53;;;;;;;26.73;17.45;;;;;;;28.21;31.53;101796.75;5016733;28;20076;-69
2021/06/29 08:20:19;;;;;;;14.48;7.60;;;;;;;28.17;31.72;101801.56;5011868;28;20041;-77
2021/06/29 08:22:45;;;;;;;13.82;6.05;;;;;;;28.15;31.75;101795.56;5000263;28;20030;-76
2021/06/29 08:25:11;;;;;;;14.88;6.05;;;;;;;28.31;31.60;101798.72;4999796;28;20033;-76
2021/06/29 08:27:38;;;;;;;19.25;8.88;;;;;;;28.52;31.28;101797.81;4999809;28;20029;-74
2021/06/29 08:30:07;;;;;;;13.55;5.80;;;;;;;28.74;30.82;101804.09;4999987;28;20014;-79
2021/06/29 08:32:33;;;;;;;10.35;6.20;;;;;;;28.86;30.64;101814.81;4999415;28;20415;-74
2021/06/29 08:34:59;;;;;;;16.98;6.93;;;;;;;29.14;30.29;101811.00;4998975;28;20042;-69
2021/06/29 08:37:24;;;;;;;31.42;9.07;;;;;;;29.14;30.22;101802.56;4998310;28;20104;-68
2021/06/29 08:39:50;;;;;;;14.38;7.72;;;;;;;29.39;30.37;101812.78;5004947;28;20038;-69
2021/06/29 08:42:20;;;;;;;15.57;6.40;;;;;;;29.49;29.93;101806.28;4998104;28;20064;-69
2021/06/29 08:44:45;;;;;;;12.30;5.93;;;;;;;29.60;29.68;101806.19;4997509;28;20026;-68
2021/06/29 08:47:11;;;;;;;15.40;6.00;;;;;;;29.64;29.66;101810.56;4998515;28;20056;-69
2021/06/29 08:49:37;;;;;;;11.95;6.70;;;;;;;29.73;29.46;101812.88;4998503;28;20029;-69
2021/06/29 08:52:05;;;;;;;8.77;4.97;;;;;;;29.73;28.81;101810.88;5000008;28;20104;-68
2021/06/29 08:54:31;;;;;;;12.00;6.32;;;;;;;29.82;29.18;101813.97;4997743;28;20026;-69
2021/06/29 08:56:58;;;;;;;15.13;5.60;;;;;;;29.96;28.72;101812.22;4998384;28;20028;-70
2021/06/29 08:59:23;;;;;;;14.70;6.55;;;;;;;29.92;28.88;101812.25;4999277;28;20037;-79
2021/06/29 09:01:49;;;;;;;15.25;6.78;;;;;;;29.93;28.98;101813.88;5015371;28;20037;-74
2021/06/29 09:04:15;;;;;;;15.13;6.50;;;;;;;29.94;28.67;101809.03;5015478;28;20021;-78
2021/06/29 09:06:43;;;;;;;9.80;5.80;;;;;;;29.75;28.46;101805.59;5015521;28;20041;-80
2021/06/29 09:09:23;;;;;;;12.85;5.55;;;;;;;29.98;27.75;101816.19;5015547;28;20065;-69
2021/06/29 09:11:48;;;;;;;8.90;5.55;;;;;;;30.18;27.90;101819.22;5015340;28;20468;-78
2021/06/29 09:14:16;;;;;;;26.95;11.13;;;;;;;30.44;27.94;101816.84;5015633;28;20040;-69
2021/06/29 09:16:43;;;;;;;9.98;6.00;;;;;;;30.52;27.63;101812.69;5015269;28;20026;-78
2021/06/29 09:19:09;;;;;;;11.35;6.82;;;;;;;30.62;27.79;101814.56;5012522;28;20034;-78
2021/06/29 09:21:38;;;;;;;23.02;7.53;;;;;;;30.86;27.22;101812.63;5015145;28;20105;-68
2021/06/29 09:24:05;;;;;;;14.25;6.53;;;;;;;30.97;27.39;101812.44;5015077;28;20108;-73
2021/06/29 09:26:31;;;;;;;15.30;6.93;;;;;;;31.19;27.41;101813.66;5015584;28;20084;-78
2021/06/29 09:29:01;;;;;;;9.73;6.45;;;;;;;31.31;27.25;101813.09;5015059;28;20061;-68
2021/06/29 09:31:31;;;;;;;12.80;6.45;;;;;;;31.43;26.63;101809.63;5013639;28;20155;-75
2021/06/29 09:34:07;;;;;;;16.08;5.80;;;;;;;31.64;26.28;101818.91;5015378;28;20084;-69
2021/06/29 09:36:35;;;;;;;11.30;5.47;;;;;;;31.81;25.90;101808.53;5014789;28;20038;-78
2021/06/29 09:39:12;;;;;;;13.07;7.32;;;;;;;31.83;25.56;101815.34;5014718;28;20030;-73
2021/06/29 09:41:47;;;;;;;16.75;6.32;;;;;;;31.90;25.77;101805.94;5014812;28;20030;-76
2021/06/29 09:44:18;;;;;;;16.20;6.63;;;;;;;32.01;26.19;101801.63;5014983;28;20030;-79
2021/06/29 09:46:45;;;;;;;13.65;6.53;;;;;;;32.10;25.63;101812.34;5014973;28;20037;-69
2021/06/29 09:49:15;;;;;;;18.38;7.68;;;;;;;31.94;25.25;101818.75;5014870;28;20029;-79
2021/06/29 09:51:49;;;;;;;21.10;6.63;;;;;;;32.14;25.48;101815.91;5014548;28;20527;-68
2021/06/29 09:54:15;;;;;;;11.63;6.28;;;;;;;32.22;24.88;101820.19;5020734;28;20030;-78
2021/06/29 09:56:43;;;;;;;8.77;5.72;;;;;;;32.27;24.58;101821.72;5023672;28;20021;-79
2021/06/29 09:59:21;;;;;;;13.45;6.35;;;;;;;32.10;24.05;101822.88;5024381;28;20449;-75
2021/06/29 10:01:48;;;;;;;10.40;5.13;;;;;;;32.21;24.58;101817.78;5005230;28;20028;-78
2021/06/29 10:04:14;;;;;;;12.57;5.32;;;;;;;32.40;24.45;101810.53;5024351;28;20075;-78
2021/06/29 10:06:42;;;;;;;13.63;6.43;;;;;;;32.58;24.06;101806.06;5022789;28;20026;-69
2021/06/29 10:09:13;;;;;;;11.73;5.72;;;;;;;32.62;24.47;101813.66;5022440;28;20079;-68
2021/06/29 10:11:38;;;;;;;12.82;6.43;;;;;;;32.76;25.00;101810.50;5020659;28;20028;-78
2021/06/29 10:14:10;;;;;;;13.23;6.32;;;;;;;32.62;25.54;101813.66;5022916;28;20471;-72
2021/06/29 10:16:40;;;;;;;21.58;7.70;;;;;;;32.42;26.07;101803.22;5019662;28;20028;-69
2021/06/29 10:21:44;;;;;;;7.50;5.40;;;;;;;32.55;25.95;101811.78;5034518;28;20038;-69
2021/06/29 10:24:11;;;;;;;9.98;6.47;;;;;;;32.66;26.01;101806.69;5034289;28;20026;-69
2021/06/29 10:26:40;;;;;;;9.43;6.47;;;;;;;32.52;26.36;101807.81;5033603;28;20118;-74
2021/06/29 10:29:08;;;;;;;9.60;6.03;;;;;;;32.64;25.93;101806.31;5033783;28;20026;-71
2021/06/29 10:31:39;;;;;;;11.95;5.95;;;;;;;32.52;25.82;101798.53;5033536;28;20427;-68
2021/06/29 10:34:07;;;;;;;13.30;6.28;;;;;;;32.48;26.12;101804.25;5033648;28;20032;-75
2021/06/29 10:36:37;;;;;;;9.18;5.43;;;;;;;32.68;25.94;101804.22;5009317;28;20710;-68
2021/06/29 10:39:04;;;;;;;12.35;6.80;;;;;;;32.57;25.55;101804.47;4997801;28;20053;-76
2021/06/29 10:41:40;;;;;;;12.27;6.60;;;;;;;32.76;26.22;101799.16;4996981;28;20036;-76
2021/06/29 10:44:14;;;;;;;11.85;6.65;;;;;;;32.54;26.28;101794.03;4998224;28;20088;-68
2021/06/29 10:46:43;;;;;;;9.55;6.65;;;;;;;32.57;26.20;101793.16;5011771;28;20034;-72
2021/06/29 10:49:29;;;;;;;11.60;6.75;;;;;;;32.50;25.85;101798.97;4996089;28;20061;-78
2021/06/29 10:51:56;;;;;;;12.85;6.13;;;;;;;32.77;25.61;101800.75;5013741;28;20065;-68
2021/06/29 10:54:42;;;;;;;16.35;7.07;;;;;;;32.85;26.18;101793.72;5013339;28;20030;-76
2021/06/29 10:57:12;;;;;;;19.25;7.38;;;;;;;32.69;26.37;101799.34;5013798;28;20025;-68
2021/06/29 10:59:39;;;;;;;8.93;6.43;;;;;;;32.79;26.22;101786.97;5013397;28;20117;-70
2021/06/29 11:02:06;;;;;;;12.10;6.40;;;;;;;32.64;26.35;101789.34;5013602;28;20021;-77
2021/06/29 11:04:47;;;;;;;13.27;5.93;;;;;;;32.61;26.27;101786.59;5013358;28;20057;-73
2021/06/29 11:07:31;;;;;;;11.70;5.93;;;;;;;32.51;26.51;101791.28;5013366;28;20037;-72
2021/06/29 11:09:57;;;;;;;14.05;5.97;;;;;;;32.38;26.60;101787.56;5013222;28;20095;-67
2021/06/29 11:12:25;;;;;;;10.90;6.43;;;;;;;32.29;26.61;101791.75;5013165;28;20068;-79
2021/06/29 11:14:53;;;;;;;10.43;6.07;;;;;;;32.44;26.25;101788.63;5013688;28;20033;-69
2021/06/29 11:17:22;;;;;;;9.35;5.30;;;;;;;32.46;26.29;101791.81;4995953;28;20052;-69
2021/06/29 11:20:14;;;;;;;79.30;14.43;;;;;;;32.50;26.28;101784.84;5013423;28;20033;-69
2021/06/29 11:23:00;;;;;;;10.70;5.47;;;;;;;32.69;26.11;101790.84;5013088;28;20026;-79